sensor_id;sensor_type;location;lat;lon;timestamp;pressure;altitude;pressure_sealevel;temperature
48003;BMP280;33768;48.578;11.574;2023-05-20T00:03:04;96543.63;;;11.84
48003;BMP280;33768;48.578;11.574;2023-05-20T00:06:08;96538.16;;;11.84
48003;BMP280;33768;48.578;11.574;2023-05-20T00:09:12;96544.38;;;11.85
48003;BMP280;33768;48.578;11.574;2023-05-20T00:12:16;96530.50;;;11.83
48003;BMP280;33768;48.578;11.574;2023-05-20T00:15:20;96526.81;;;11.80
48003;BMP280;33768;48.578;11.574;2023-05-20T00:18:24;96528.06;;;11.79
48003;BMP280;33768;48.578;11.574;2023-05-20T00:21:28;96534.47;;;11.82
48003;BMP280;33768;48.578;11.574;2023-05-20T00:24:32;96532.50;;;11.82
48003;BMP280;33768;48.578;11.574;2023-05-20T00:27:36;96531.22;;;11.83
48003;BMP280;33768;48.578;11.574;2023-05-20T00:30:40;96529.00;;;11.82
48003;BMP280;33768;48.578;11.574;2023-05-20T00:33:45;96524.31;;;11.82
48003;BMP280;33768;48.578;11.574;2023-05-20T00:36:48;96521.34;;;11.80
48003;BMP280;33768;48.578;11.574;2023-05-20T00:39:52;96522.59;;;11.79
48003;BMP280;33768;48.578;11.574;2023-05-20T00:42:56;96535.34;;;11.77
48003;BMP280;33768;48.578;11.574;2023-05-20T00:46:01;96525.69;;;11.76
48003;BMP280;33768;48.578;11.574;2023-05-20T00:49:05;96535.16;;;11.75
48003;BMP280;33768;48.578;11.574;2023-05-20T00:52:10;96520.53;;;11.72
48003;BMP280;33768;48.578;11.574;2023-05-20T00:55:14;96529.25;;;11.71
48003;BMP280;33768;48.578;11.574;2023-05-20T00:58:18;96529.25;;;11.71
48003;BMP280;33768;48.578;11.574;2023-05-20T01:01:22;96522.84;;;11.68
48003;BMP280;33768;48.578;11.574;2023-05-20T01:04:26;96528.44;;;11.63
48003;BMP280;33768;48.578;11.574;2023-05-20T01:07:31;96524.34;;;11.56
48003;BMP280;33768;48.578;11.574;2023-05-20T01:10:38;96531.94;;;11.51
48003;BMP280;33768;48.578;11.574;2023-05-20T01:13:47;96528.59;;;11.45
48003;BMP280;33768;48.578;11.574;2023-05-20T01:16:54;96523.13;;;11.45
48003;BMP280;33768;48.578;11.574;2023-05-20T01:19:59;96521.63;;;11.44
48003;BMP280;33768;48.578;11.574;2023-05-20T01:23:04;96517.22;;;11.41
48003;BMP280;33768;48.578;11.574;2023-05-20T01:26:08;96513.75;;;11.40
48003;BMP280;33768;48.578;11.574;2023-05-20T01:29:16;96502.94;;;11.35
48003;BMP280;33768;48.578;11.574;2023-05-20T01:32:24;96510.91;;;11.33
48003;BMP280;33768;48.578;11.574;2023-05-20T01:35:29;96511.97;;;11.30
48003;BMP280;33768;48.578;11.574;2023-05-20T01:38:35;96507.00;;;11.28
48003;BMP280;33768;48.578;11.574;2023-05-20T01:41:40;96502.09;;;11.27
48003;BMP280;33768;48.578;11.574;2023-05-20T01:44:44;96504.09;;;11.26
48003;BMP280;33768;48.578;11.574;2023-05-20T01:47:48;96495.47;;;11.23
48003;BMP280;33768;48.578;11.574;2023-05-20T01:50:53;96507.69;;;11.22
48003;BMP280;33768;48.578;11.574;2023-05-20T01:53:58;96507.47;;;11.20
48003;BMP280;33768;48.578;11.574;2023-05-20T01:57:02;96501.25;;;11.19
48003;BMP280;33768;48.578;11.574;2023-05-20T02:00:07;96502.00;;;11.20
48003;BMP280;33768;48.578;11.574;2023-05-20T02:03:17;96498.41;;;11.24
48003;BMP280;33768;48.578;11.574;2023-05-20T02:06:21;96498.09;;;11.28
48003;BMP280;33768;48.578;11.574;2023-05-20T02:09:27;96493.06;;;11.32
48003;BMP280;33768;48.578;11.574;2023-05-20T02:12:31;96490.53;;;11.34
48003;BMP280;33768;48.578;11.574;2023-05-20T02:15:35;96484.84;;;11.32
48003;BMP280;33768;48.578;11.574;2023-05-20T02:18:39;96482.63;;;11.30
48003;BMP280;33768;48.578;11.574;2023-05-20T02:21:43;96464.25;;;11.31
48003;BMP280;33768;48.578;11.574;2023-05-20T02:24:49;96466.97;;;11.31
48003;BMP280;33768;48.578;11.574;2023-05-20T02:27:53;96476.44;;;11.30
48003;BMP280;33768;48.578;11.574;2023-05-20T02:30:57;96473.00;;;11.29
48003;BMP280;33768;48.578;11.574;2023-05-20T02:34:01;96473.28;;;11.26
48003;BMP280;33768;48.578;11.574;2023-05-20T02:37:06;96481.31;;;11.24
48003;BMP280;33768;48.578;11.574;2023-05-20T02:40:10;96477.94;;;11.18
48003;BMP280;33768;48.578;11.574;2023-05-20T02:43:16;96473.31;;;11.13
48003;BMP280;33768;48.578;11.574;2023-05-20T02:46:20;96475.84;;;11.11
48003;BMP280;33768;48.578;11.574;2023-05-20T02:49:24;96483.63;;;11.07
48003;BMP280;33768;48.578;11.574;2023-05-20T02:52:29;96482.47;;;11.03
48003;BMP280;33768;48.578;11.574;2023-05-20T02:55:34;96483.00;;;11.01
48003;BMP280;33768;48.578;11.574;2023-05-20T02:58:39;96485.72;;;11.01
48003;BMP280;33768;48.578;11.574;2023-05-20T03:01:43;96477.31;;;10.99
48003;BMP280;33768;48.578;11.574;2023-05-20T03:04:47;96480.06;;;10.99
48003;BMP280;33768;48.578;11.574;2023-05-20T03:07:51;96483.19;;;11.03
48003;BMP280;33768;48.578;11.574;2023-05-20T03:10:55;96481.94;;;11.04
48003;BMP280;33768;48.578;11.574;2023-05-20T03:14:00;96479.44;;;11.06
48003;BMP280;33768;48.578;11.574;2023-05-20T03:17:04;96484.03;;;11.11
48003;BMP280;33768;48.578;11.574;2023-05-20T03:20:08;96481.50;;;11.13
48003;BMP280;33768;48.578;11.574;2023-05-20T03:23:15;96478.59;;;11.11
48003;BMP280;33768;48.578;11.574;2023-05-20T03:26:19;96482.78;;;11.12
48003;BMP280;33768;48.578;11.574;2023-05-20T03:29:24;96487.91;;;11.16
48003;BMP280;33768;48.578;11.574;2023-05-20T03:32:29;96492.84;;;11.17
48003;BMP280;33768;48.578;11.574;2023-05-20T03:35:33;96495.81;;;11.19
48003;BMP280;33768;48.578;11.574;2023-05-20T03:38:37;96504.19;;;11.21
48003;BMP280;33768;48.578;11.574;2023-05-20T03:41:41;96504.63;;;11.25
48003;BMP280;33768;48.578;11.574;2023-05-20T03:44:47;96499.16;;;11.25
48003;BMP280;33768;48.578;11.574;2023-05-20T03:47:52;96504.63;;;11.25
48003;BMP280;33768;48.578;11.574;2023-05-20T03:50:57;96491.69;;;11.25
48003;BMP280;33768;48.578;11.574;2023-05-20T03:54:01;96493.91;;;11.27
48003;BMP280;33768;48.578;11.574;2023-05-20T03:57:05;96494.13;;;11.29
48003;BMP280;33768;48.578;11.574;2023-05-20T04:00:09;96499.97;;;11.33
48003;BMP280;33768;48.578;11.574;2023-05-20T04:03:20;96497.13;;;11.38
48003;BMP280;33768;48.578;11.574;2023-05-20T04:06:26;96491.06;;;11.45
48003;BMP280;33768;48.578;11.574;2023-05-20T04:09:30;96482.44;;;11.54
48003;BMP280;33768;48.578;11.574;2023-05-20T04:12:33;96486.28;;;11.58
48003;BMP280;33768;48.578;11.574;2023-05-20T04:15:40;96482.47;;;11.61
48003;BMP280;33768;48.578;11.574;2023-05-20T04:18:44;96474.50;;;11.63
48003;BMP280;33768;48.578;11.574;2023-05-20T04:21:49;96483.13;;;11.67
48003;BMP280;33768;48.578;11.574;2023-05-20T04:24:53;96482.06;;;11.70
48003;BMP280;33768;48.578;11.574;2023-05-20T04:27:58;96482.25;;;11.72
48003;BMP280;33768;48.578;11.574;2023-05-20T04:31:03;96492.88;;;11.76
48003;BMP280;33768;48.578;11.574;2023-05-20T04:34:09;96478.47;;;11.75
48003;BMP280;33768;48.578;11.574;2023-05-20T04:37:14;96495.59;;;11.76
48003;BMP280;33768;48.578;11.574;2023-05-20T04:40:19;96487.19;;;11.74
48003;BMP280;33768;48.578;11.574;2023-05-20T04:43:25;96495.00;;;11.70
48003;BMP280;33768;48.578;11.574;2023-05-20T04:46:32;96485.84;;;11.67
48003;BMP280;33768;48.578;11.574;2023-05-20T04:49:37;96485.50;;;11.71
48003;BMP280;33768;48.578;11.574;2023-05-20T04:52:41;96486.88;;;11.77
48003;BMP280;33768;48.578;11.574;2023-05-20T04:55:47;96479.56;;;11.92
48003;BMP280;33768;48.578;11.574;2023-05-20T04:58:51;96487.38;;;12.09
48003;BMP280;33768;48.578;11.574;2023-05-20T05:01:56;96479.63;;;12.20
48003;BMP280;33768;48.578;11.574;2023-05-20T05:05:01;96477.78;;;12.35
48003;BMP280;33768;48.578;11.574;2023-05-20T05:08:05;96471.81;;;12.44
48003;BMP280;33768;48.578;11.574;2023-05-20T05:11:12;96472.78;;;12.54
48003;BMP280;33768;48.578;11.574;2023-05-20T05:14:17;96488.59;;;12.68
48003;BMP280;33768;48.578;11.574;2023-05-20T05:17:21;96482.50;;;12.82
48003;BMP280;33768;48.578;11.574;2023-05-20T05:20:25;96466.00;;;12.95
48003;BMP280;33768;48.578;11.574;2023-05-20T05:23:29;96469.34;;;13.09
48003;BMP280;33768;48.578;11.574;2023-05-20T05:26:33;96461.00;;;13.21
48003;BMP280;33768;48.578;11.574;2023-05-20T05:29:38;96467.47;;;13.31
48003;BMP280;33768;48.578;11.574;2023-05-20T05:32:43;96463.47;;;13.40
48003;BMP280;33768;48.578;11.574;2023-05-20T05:35:48;96455.81;;;13.45
48003;BMP280;33768;48.578;11.574;2023-05-20T05:38:52;96451.84;;;13.54
48003;BMP280;33768;48.578;11.574;2023-05-20T05:41:56;96458.44;;;13.58
48003;BMP280;33768;48.578;11.574;2023-05-20T05:45:01;96447.47;;;13.66
48003;BMP280;33768;48.578;11.574;2023-05-20T05:48:06;96449.16;;;13.76
48003;BMP280;33768;48.578;11.574;2023-05-20T05:51:10;96455.72;;;13.80
48003;BMP280;33768;48.578;11.574;2023-05-20T05:54:15;96457.41;;;13.91
48003;BMP280;33768;48.578;11.574;2023-05-20T05:57:19;96453.63;;;14.01
48003;BMP280;33768;48.578;11.574;2023-05-20T06:00:23;96452.72;;;14.06
48003;BMP280;33768;48.578;11.574;2023-05-20T06:03:27;96454.00;;;14.12
48003;BMP280;33768;48.578;11.574;2023-05-20T06:06:33;96452.38;;;14.17
48003;BMP280;33768;48.578;11.574;2023-05-20T06:09:37;96459.69;;;14.22
48003;BMP280;33768;48.578;11.574;2023-05-20T06:12:41;96454.56;;;14.26
48003;BMP280;33768;48.578;11.574;2023-05-20T06:15:48;96449.44;;;14.30
48003;BMP280;33768;48.578;11.574;2023-05-20T06:18:52;96449.06;;;14.40
48003;BMP280;33768;48.578;11.574;2023-05-20T06:22:00;96441.75;;;14.50
48003;BMP280;33768;48.578;11.574;2023-05-20T06:25:05;96446.50;;;14.57
48003;BMP280;33768;48.578;11.574;2023-05-20T06:28:11;96452.72;;;14.65
48003;BMP280;33768;48.578;11.574;2023-05-20T06:31:16;96450.50;;;14.71
48003;BMP280;33768;48.578;11.574;2023-05-20T06:34:20;96442.84;;;14.77
48003;BMP280;33768;48.578;11.574;2023-05-20T06:37:24;96444.81;;;14.84
48003;BMP280;33768;48.578;11.574;2023-05-20T06:40:28;96449.38;;;14.96
48003;BMP280;33768;48.578;11.574;2023-05-20T06:43:32;96444.78;;;14.99
48003;BMP280;33768;48.578;11.574;2023-05-20T06:47:00;96438.19;;;15.09
48003;BMP280;33768;48.578;11.574;2023-05-20T06:50:04;96441.09;;;15.18
48003;BMP280;33768;48.578;11.574;2023-05-20T06:53:09;96435.75;;;15.28
48003;BMP280;33768;48.578;11.574;2023-05-20T06:56:14;96429.66;;;15.36
48003;BMP280;33768;48.578;11.574;2023-05-20T06:59:18;96424.47;;;15.55
48003;BMP280;33768;48.578;11.574;2023-05-20T07:02:24;96426.53;;;15.79
48003;BMP280;33768;48.578;11.574;2023-05-20T07:05:28;96414.72;;;15.93
48003;BMP280;33768;48.578;11.574;2023-05-20T07:08:32;96414.59;;;16.15
48003;BMP280;33768;48.578;11.574;2023-05-20T07:11:36;96413.50;;;16.35
48003;BMP280;33768;48.578;11.574;2023-05-20T07:14:41;96407.72;;;16.64
48003;BMP280;33768;48.578;11.574;2023-05-20T07:17:45;96401.44;;;17.05
48003;BMP280;33768;48.578;11.574;2023-05-20T07:20:49;96403.94;;;17.44
48003;BMP280;33768;48.578;11.574;2023-05-20T07:24:06;96403.63;;;17.83
48003;BMP280;33768;48.578;11.574;2023-05-20T07:27:10;96402.22;;;18.17
48003;BMP280;33768;48.578;11.574;2023-05-20T07:30:14;96402.47;;;18.47
48003;BMP280;33768;48.578;11.574;2023-05-20T07:33:24;96395.41;;;18.91
48003;BMP280;33768;48.578;11.574;2023-05-20T07:36:28;96401.16;;;19.30
48003;BMP280;33768;48.578;11.574;2023-05-20T07:39:34;96392.97;;;19.51
48003;BMP280;33768;48.578;11.574;2023-05-20T07:42:38;96390.75;;;19.87
48003;BMP280;33768;48.578;11.574;2023-05-20T07:45:43;96385.28;;;19.98
48003;BMP280;33768;48.578;11.574;2023-05-20T07:48:47;96381.97;;;19.90
48003;BMP280;33768;48.578;11.574;2023-05-20T07:51:52;96375.41;;;19.95
48003;BMP280;33768;48.578;11.574;2023-05-20T07:54:56;96368.13;;;20.60
48003;BMP280;33768;48.578;11.574;2023-05-20T07:58:01;96372.94;;;21.21
48003;BMP280;33768;48.578;11.574;2023-05-20T08:01:06;96365.56;;;21.78
48003;BMP280;33768;48.578;11.574;2023-05-20T08:04:12;96368.31;;;22.56
48003;BMP280;33768;48.578;11.574;2023-05-20T08:07:16;96351.56;;;23.01
48003;BMP280;33768;48.578;11.574;2023-05-20T08:10:29;96365.78;;;23.18
48003;BMP280;33768;48.578;11.574;2023-05-20T08:13:34;96367.28;;;23.08
48003;BMP280;33768;48.578;11.574;2023-05-20T08:16:41;96367.06;;;22.70
48003;BMP280;33768;48.578;11.574;2023-05-20T08:19:45;96353.00;;;23.38
48003;BMP280;33768;48.578;11.574;2023-05-20T08:22:51;96353.47;;;24.46
48003;BMP280;33768;48.578;11.574;2023-05-20T08:25:55;96343.31;;;24.79
48003;BMP280;33768;48.578;11.574;2023-05-20T08:29:02;96345.06;;;25.13
48003;BMP280;33768;48.578;11.574;2023-05-20T08:32:06;96357.69;;;24.74
48003;BMP280;33768;48.578;11.574;2023-05-20T08:35:12;96344.84;;;25.09
48003;BMP280;33768;48.578;11.574;2023-05-20T08:38:16;96350.50;;;25.24
48003;BMP280;33768;48.578;11.574;2023-05-20T08:41:20;96348.50;;;24.98
48003;BMP280;33768;48.578;11.574;2023-05-20T08:44:26;96349.41;;;25.02
48003;BMP280;33768;48.578;11.574;2023-05-20T08:47:31;96345.69;;;25.40
48003;BMP280;33768;48.578;11.574;2023-05-20T08:50:35;96347.66;;;25.79
48003;BMP280;33768;48.578;11.574;2023-05-20T08:53:39;96337.53;;;25.02
48003;BMP280;33768;48.578;11.574;2023-05-20T08:56:43;96333.63;;;24.93
48003;BMP280;33768;48.578;11.574;2023-05-20T08:59:47;96336.84;;;24.35
48003;BMP280;33768;48.578;11.574;2023-05-20T09:02:52;96343.63;;;23.56
48003;BMP280;33768;48.578;11.574;2023-05-20T09:06:04;96350.16;;;22.66
48003;BMP280;33768;48.578;11.574;2023-05-20T09:09:12;96352.34;;;22.45
48003;BMP280;33768;48.578;11.574;2023-05-20T09:12:17;96338.31;;;22.88
48003;BMP280;33768;48.578;11.574;2023-05-20T09:15:22;96336.56;;;23.66
48003;BMP280;33768;48.578;11.574;2023-05-20T09:18:28;96333.88;;;23.68
48003;BMP280;33768;48.578;11.574;2023-05-20T09:21:33;96343.69;;;23.69
48003;BMP280;33768;48.578;11.574;2023-05-20T09:24:38;96325.69;;;24.88
48003;BMP280;33768;48.578;11.574;2023-05-20T09:27:43;96326.69;;;25.65
48003;BMP280;33768;48.578;11.574;2023-05-20T09:30:48;96322.88;;;25.30
48003;BMP280;33768;48.578;11.574;2023-05-20T09:33:54;96320.13;;;25.45
48003;BMP280;33768;48.578;11.574;2023-05-20T09:36:59;96326.75;;;25.10
48003;BMP280;33768;48.578;11.574;2023-05-20T09:40:03;96335.69;;;24.53
48003;BMP280;33768;48.578;11.574;2023-05-20T09:43:08;96330.34;;;24.57
48003;BMP280;33768;48.578;11.574;2023-05-20T09:46:14;96327.81;;;24.89
48003;BMP280;33768;48.578;11.574;2023-05-20T09:49:19;96329.56;;;25.51
48003;BMP280;33768;48.578;11.574;2023-05-20T09:52:25;96331.72;;;25.53
48003;BMP280;33768;48.578;11.574;2023-05-20T09:55:30;96325.34;;;24.95
48003;BMP280;33768;48.578;11.574;2023-05-20T09:58:35;96324.44;;;25.33
48003;BMP280;33768;48.578;11.574;2023-05-20T10:01:39;96310.00;;;25.51
48003;BMP280;33768;48.578;11.574;2023-05-20T10:04:46;96312.34;;;25.28
48003;BMP280;33768;48.578;11.574;2023-05-20T10:15:12;96297.97;;;28.05
48003;BMP280;33768;48.578;11.574;2023-05-20T10:21:23;96309.06;;;25.76
48003;BMP280;33768;48.578;11.574;2023-05-20T10:24:39;96310.25;;;25.29
48003;BMP280;33768;48.578;11.574;2023-05-20T10:27:46;96306.34;;;25.77
48003;BMP280;33768;48.578;11.574;2023-05-20T10:30:50;96293.84;;;26.40
48003;BMP280;33768;48.578;11.574;2023-05-20T10:33:57;96292.06;;;27.28
48003;BMP280;33768;48.578;11.574;2023-05-20T10:37:01;96280.47;;;27.53
48003;BMP280;33768;48.578;11.574;2023-05-20T10:40:10;96282.97;;;27.45
48003;BMP280;33768;48.578;11.574;2023-05-20T10:43:16;96281.91;;;27.71
48003;BMP280;33768;48.578;11.574;2023-05-20T10:46:29;96278.66;;;27.42
48003;BMP280;33768;48.578;11.574;2023-05-20T10:49:34;96280.53;;;27.20
48003;BMP280;33768;48.578;11.574;2023-05-20T10:52:40;96276.53;;;26.75
48003;BMP280;33768;48.578;11.574;2023-05-20T10:55:48;96270.81;;;26.56
48003;BMP280;33768;48.578;11.574;2023-05-20T10:58:54;96264.72;;;26.29
48003;BMP280;33768;48.578;11.574;2023-05-20T11:02:00;96273.63;;;26.10
48003;BMP280;33768;48.578;11.574;2023-05-20T11:05:05;96264.19;;;26.17
48003;BMP280;33768;48.578;11.574;2023-05-20T11:08:09;96262.97;;;26.07
48003;BMP280;33768;48.578;11.574;2023-05-20T11:11:14;96272.97;;;25.66
48003;BMP280;33768;48.578;11.574;2023-05-20T11:14:20;96273.13;;;25.26
48003;BMP280;33768;48.578;11.574;2023-05-20T11:17:24;96271.06;;;24.98
48003;BMP280;33768;48.578;11.574;2023-05-20T11:20:29;96261.50;;;24.61
48003;BMP280;33768;48.578;11.574;2023-05-20T11:23:37;96264.53;;;25.36
48003;BMP280;33768;48.578;11.574;2023-05-20T11:26:41;96250.84;;;26.16
48003;BMP280;33768;48.578;11.574;2023-05-20T11:29:48;96249.91;;;26.27
48003;BMP280;33768;48.578;11.574;2023-05-20T11:32:59;96246.66;;;26.80
48003;BMP280;33768;48.578;11.574;2023-05-20T11:36:04;96239.88;;;27.02
48003;BMP280;33768;48.578;11.574;2023-05-20T11:39:11;96240.84;;;27.79
48003;BMP280;33768;48.578;11.574;2023-05-20T11:42:17;96238.44;;;27.18
48003;BMP280;33768;48.578;11.574;2023-05-20T11:45:22;96222.88;;;26.01
48003;BMP280;33768;48.578;11.574;2023-05-20T11:48:26;96232.69;;;25.43
48003;BMP280;33768;48.578;11.574;2023-05-20T11:51:30;96248.06;;;25.13
48003;BMP280;33768;48.578;11.574;2023-05-20T11:54:34;96238.72;;;25.96
48003;BMP280;33768;48.578;11.574;2023-05-20T11:57:39;96237.53;;;26.79
48003;BMP280;33768;48.578;11.574;2023-05-20T12:00:44;96231.41;;;26.68
48003;BMP280;33768;48.578;11.574;2023-05-20T12:03:48;96235.22;;;26.11
48003;BMP280;33768;48.578;11.574;2023-05-20T12:06:52;96236.97;;;25.44
48003;BMP280;33768;48.578;11.574;2023-05-20T12:09:56;96233.31;;;25.26
48003;BMP280;33768;48.578;11.574;2023-05-20T12:13:00;96230.81;;;25.47
48003;BMP280;33768;48.578;11.574;2023-05-20T12:16:05;96235.28;;;26.28
48003;BMP280;33768;48.578;11.574;2023-05-20T12:19:10;96224.19;;;26.63
48003;BMP280;33768;48.578;11.574;2023-05-20T12:22:14;96221.22;;;25.65
48003;BMP280;33768;48.578;11.574;2023-05-20T12:25:19;96231.88;;;24.96
48003;BMP280;33768;48.578;11.574;2023-05-20T12:28:24;96234.94;;;24.60
48003;BMP280;33768;48.578;11.574;2023-05-20T12:31:28;96228.16;;;24.50
48003;BMP280;33768;48.578;11.574;2023-05-20T12:34:32;96226.41;;;24.30
48003;BMP280;33768;48.578;11.574;2023-05-20T12:37:40;96219.59;;;24.33
48003;BMP280;33768;48.578;11.574;2023-05-20T12:40:44;96226.31;;;24.28
48003;BMP280;33768;48.578;11.574;2023-05-20T12:43:49;96225.38;;;24.79
48003;BMP280;33768;48.578;11.574;2023-05-20T12:46:53;96220.41;;;25.19
48003;BMP280;33768;48.578;11.574;2023-05-20T12:49:58;96217.09;;;25.97
48003;BMP280;33768;48.578;11.574;2023-05-20T12:53:03;96197.38;;;27.07
48003;BMP280;33768;48.578;11.574;2023-05-20T12:56:07;96204.41;;;27.60
48003;BMP280;33768;48.578;11.574;2023-05-20T12:59:12;96197.97;;;27.75
48003;BMP280;33768;48.578;11.574;2023-05-20T13:02:16;96213.72;;;27.13
48003;BMP280;33768;48.578;11.574;2023-05-20T13:05:21;96205.47;;;27.00
48003;BMP280;33768;48.578;11.574;2023-05-20T13:08:26;96210.00;;;26.91
48003;BMP280;33768;48.578;11.574;2023-05-20T13:11:30;96194.66;;;26.92
48003;BMP280;33768;48.578;11.574;2023-05-20T13:14:34;96195.94;;;26.89
48003;BMP280;33768;48.578;11.574;2023-05-20T13:17:39;96194.41;;;27.21
48003;BMP280;33768;48.578;11.574;2023-05-20T13:20:44;96197.84;;;27.36
48003;BMP280;33768;48.578;11.574;2023-05-20T13:23:48;96196.31;;;27.34
48003;BMP280;33768;48.578;11.574;2023-05-20T13:26:53;96194.81;;;26.79
48003;BMP280;33768;48.578;11.574;2023-05-20T13:29:56;96182.63;;;26.72
48003;BMP280;33768;48.578;11.574;2023-05-20T13:33:00;96190.53;;;26.61
48003;BMP280;33768;48.578;11.574;2023-05-20T13:36:05;96184.91;;;26.43
48003;BMP280;33768;48.578;11.574;2023-05-20T13:39:09;96180.47;;;26.54
48003;BMP280;33768;48.578;11.574;2023-05-20T13:42:13;96177.28;;;26.78
48003;BMP280;33768;48.578;11.574;2023-05-20T13:45:17;96158.50;;;27.15
48003;BMP280;33768;48.578;11.574;2023-05-20T13:48:21;96159.56;;;27.60
48003;BMP280;33768;48.578;11.574;2023-05-20T13:51:25;96156.66;;;27.58
48003;BMP280;33768;48.578;11.574;2023-05-20T13:54:30;96155.38;;;27.98
48003;BMP280;33768;48.578;11.574;2023-05-20T13:57:34;96146.91;;;28.36
48003;BMP280;33768;48.578;11.574;2023-05-20T14:00:38;96156.31;;;27.87
48003;BMP280;33768;48.578;11.574;2023-05-20T14:03:42;96161.03;;;27.27
48003;BMP280;33768;48.578;11.574;2023-05-20T14:06:46;96155.78;;;26.83
48003;BMP280;33768;48.578;11.574;2023-05-20T14:09:50;96155.34;;;26.56
48003;BMP280;33768;48.578;11.574;2023-05-20T14:12:56;96150.72;;;26.62
48003;BMP280;33768;48.578;11.574;2023-05-20T14:16:01;96139.66;;;26.49
48003;BMP280;33768;48.578;11.574;2023-05-20T14:19:05;96142.69;;;26.38
48003;BMP280;33768;48.578;11.574;2023-05-20T14:22:09;96138.59;;;26.08
48003;BMP280;33768;48.578;11.574;2023-05-20T14:25:15;96133.03;;;25.93
48003;BMP280;33768;48.578;11.574;2023-05-20T14:28:19;96139.19;;;25.44
48003;BMP280;33768;48.578;11.574;2023-05-20T14:31:23;96141.94;;;24.84
48003;BMP280;33768;48.578;11.574;2023-05-20T14:34:27;96143.53;;;24.74
48003;BMP280;33768;48.578;11.574;2023-05-20T14:37:31;96143.25;;;24.40
48003;BMP280;33768;48.578;11.574;2023-05-20T14:40:35;96137.94;;;23.90
48003;BMP280;33768;48.578;11.574;2023-05-20T14:43:39;96140.31;;;23.69
48003;BMP280;33768;48.578;11.574;2023-05-20T14:46:43;96136.19;;;23.57
48003;BMP280;33768;48.578;11.574;2023-05-20T14:49:48;96137.31;;;23.65
48003;BMP280;33768;48.578;11.574;2023-05-20T14:52:52;96133.59;;;23.87
48003;BMP280;33768;48.578;11.574;2023-05-20T14:55:57;96130.38;;;23.93
48003;BMP280;33768;48.578;11.574;2023-05-20T14:59:01;96129.88;;;23.83
48003;BMP280;33768;48.578;11.574;2023-05-20T15:02:05;96132.78;;;23.85
48003;BMP280;33768;48.578;11.574;2023-05-20T15:05:09;96122.13;;;23.68
48003;BMP280;33768;48.578;11.574;2023-05-20T15:08:14;96128.31;;;23.54
48003;BMP280;33768;48.578;11.574;2023-05-20T15:11:18;96132.00;;;23.45
48003;BMP280;33768;48.578;11.574;2023-05-20T15:14:23;96126.28;;;23.54
48003;BMP280;33768;48.578;11.574;2023-05-20T15:17:27;96121.09;;;23.75
48003;BMP280;33768;48.578;11.574;2023-05-20T15:20:31;96125.53;;;23.80
48003;BMP280;33768;48.578;11.574;2023-05-20T15:23:35;96120.28;;;23.86
48003;BMP280;33768;48.578;11.574;2023-05-20T15:26:39;96116.16;;;23.87
48003;BMP280;33768;48.578;11.574;2023-05-20T15:29:44;96116.66;;;23.84
48003;BMP280;33768;48.578;11.574;2023-05-20T15:32:48;96128.63;;;23.86
48003;BMP280;33768;48.578;11.574;2023-05-20T15:35:52;96121.50;;;23.83
48003;BMP280;33768;48.578;11.574;2023-05-20T15:38:56;96122.66;;;23.65
48003;BMP280;33768;48.578;11.574;2023-05-20T15:42:00;96111.81;;;23.57
48003;BMP280;33768;48.578;11.574;2023-05-20T15:45:05;96117.84;;;23.41
48003;BMP280;33768;48.578;11.574;2023-05-20T15:48:10;96115.59;;;23.24
48003;BMP280;33768;48.578;11.574;2023-05-20T15:51:14;96109.47;;;23.14
48003;BMP280;33768;48.578;11.574;2023-05-20T15:54:18;96125.75;;;23.06
48003;BMP280;33768;48.578;11.574;2023-05-20T15:57:23;96126.94;;;22.90
48003;BMP280;33768;48.578;11.574;2023-05-20T16:00:27;96127.84;;;22.81
48003;BMP280;33768;48.578;11.574;2023-05-20T16:03:31;96129.53;;;22.75
48003;BMP280;33768;48.578;11.574;2023-05-20T16:06:36;96129.31;;;22.71
48003;BMP280;33768;48.578;11.574;2023-05-20T16:09:40;96133.34;;;22.68
48003;BMP280;33768;48.578;11.574;2023-05-20T16:12:44;96137.31;;;22.65
48003;BMP280;33768;48.578;11.574;2023-05-20T16:15:48;96139.38;;;22.64
48003;BMP280;33768;48.578;11.574;2023-05-20T16:18:53;96138.53;;;22.62
48003;BMP280;33768;48.578;11.574;2023-05-20T16:21:57;96130.19;;;22.62
48003;BMP280;33768;48.578;11.574;2023-05-20T16:25:02;96132.53;;;22.54
48003;BMP280;33768;48.578;11.574;2023-05-20T16:28:07;96131.13;;;22.42
48003;BMP280;33768;48.578;11.574;2023-05-20T16:31:12;96133.47;;;22.34
48003;BMP280;33768;48.578;11.574;2023-05-20T16:34:16;96128.88;;;22.27
48003;BMP280;33768;48.578;11.574;2023-05-20T16:37:19;96133.41;;;22.21
48003;BMP280;33768;48.578;11.574;2023-05-20T16:40:24;96136.44;;;22.13
48003;BMP280;33768;48.578;11.574;2023-05-20T16:43:28;96141.75;;;22.09
48003;BMP280;33768;48.578;11.574;2023-05-20T16:46:33;96134.25;;;22.00
48003;BMP280;33768;48.578;11.574;2023-05-20T16:49:36;96135.75;;;21.90
48003;BMP280;33768;48.578;11.574;2023-05-20T16:52:40;96136.38;;;21.77
48003;BMP280;33768;48.578;11.574;2023-05-20T16:55:45;96131.06;;;21.70
48003;BMP280;33768;48.578;11.574;2023-05-20T16:58:49;96131.31;;;21.63
48003;BMP280;33768;48.578;11.574;2023-05-20T17:01:54;96132.41;;;21.58
48003;BMP280;33768;48.578;11.574;2023-05-20T17:04:58;96132.03;;;21.52
48003;BMP280;33768;48.578;11.574;2023-05-20T17:08:03;96120.34;;;21.42
48003;BMP280;33768;48.578;11.574;2023-05-20T17:11:07;96133.72;;;21.34
48003;BMP280;33768;48.578;11.574;2023-05-20T17:14:11;96138.63;;;21.24
48003;BMP280;33768;48.578;11.574;2023-05-20T17:17:15;96141.16;;;21.20
48003;BMP280;33768;48.578;11.574;2023-05-20T17:20:19;96130.56;;;21.17
48003;BMP280;33768;48.578;11.574;2023-05-20T17:23:23;96134.16;;;21.08
48003;BMP280;33768;48.578;11.574;2023-05-20T17:26:28;96130.41;;;21.03
48003;BMP280;33768;48.578;11.574;2023-05-20T17:29:32;96149.59;;;21.00
48003;BMP280;33768;48.578;11.574;2023-05-20T17:32:36;96149.09;;;20.92
48003;BMP280;33768;48.578;11.574;2023-05-20T17:35:43;96156.16;;;20.83
48003;BMP280;33768;48.578;11.574;2023-05-20T17:38:48;96150.13;;;20.75
48003;BMP280;33768;48.578;11.574;2023-05-20T17:41:52;96160.13;;;20.69